Time;durP1;ratioP1;P1;durP2;ratioP2;P2;SDS_P1;SDS_P2;PMS_P1;PMS_P2;Temp;Humidity;BMP_temperature;BMP_pressure;BME280_temperature;BME280_humidity;BME280_pressure;Samples;Min_cycle;Max_cycle;Signal;HPM_P1;HPM_P2
2022/01/01 00:01:53;;;;;;;6.00;5.30;;;16.00;91.80;;;;;;936046;152;27336;-70
2022/01/01 00:04:20;;;;;;;8.23;5.42;;;16.00;91.80;;;;;;935378;151;27323;-73
2022/01/01 00:06:46;;;;;;;7.47;5.08;;;16.00;91.80;;;;;;925968;152;27334;-71
2022/01/01 00:09:13;;;;;;;6.22;4.78;;;16.00;91.80;;;;;;926070;151;27461;-70
2022/01/01 00:11:40;;;;;;;6.72;4.90;;;15.90;91.80;;;;;;926461;152;27392;-71
2022/01/01 00:14:09;;;;;;;7.60;5.03;;;15.90;91.90;;;;;;932970;150;27347;-70
2022/01/01 00:16:35;;;;;;;5.50;4.90;;;15.90;91.90;;;;;;927215;152;27882;-73
2022/01/01 00:19:02;;;;;;;5.70;5.20;;;15.90;91.90;;;;;;918892;153;27358;-70
2022/01/01 00:21:29;;;;;;;7.75;5.53;;;15.90;92.00;;;;;;934403;151;27327;-70
2022/01/01 00:23:55;;;;;;;6.53;5.33;;;15.90;92.10;;;;;;930755;149;27330;-70
2022/01/01 00:26:22;;;;;;;6.25;5.05;;;15.90;92.10;;;;;;932990;149;27463;-71
2022/01/01 00:28:48;;;;;;;9.78;5.95;;;15.90;92.10;;;;;;942260;148;27277;-71
2022/01/01 00:31:15;;;;;;;5.58;5.08;;;15.90;92.10;;;;;;939740;149;27303;-69
2022/01/01 00:33:42;;;;;;;7.30;5.72;;;15.90;92.20;;;;;;948613;149;27355;-69
2022/01/01 00:36:08;;;;;;;7.17;5.60;;;15.90;92.20;;;;;;926975;151;27385;-71
2022/01/01 00:38:35;;;;;;;7.30;5.35;;;15.90;92.20;;;;;;924350;152;27431;-70
2022/01/01 00:41:01;;;;;;;5.87;5.10;;;15.90;92.20;;;;;;925777;152;27348;-70
2022/01/01 00:43:28;;;;;;;7.33;5.60;;;15.90;92.20;;;;;;927827;152;27359;-72
2022/01/01 00:45:55;;;;;;;5.65;4.95;;;15.80;92.20;;;;;;924634;152;27358;-72
2022/01/01 00:48:21;;;;;;;6.47;5.03;;;15.80;92.20;;;;;;924811;152;27489;-73
2022/01/01 00:50:48;;;;;;;11.33;5.42;;;15.80;92.30;;;;;;930374;152;27337;-74
2022/01/01 00:53:14;;;;;;;5.15;4.65;;;15.80;92.30;;;;;;925491;152;27411;-74
2022/01/01 00:55:41;;;;;;;6.10;5.50;;;15.80;92.30;;;;;;924957;152;27412;-76
2022/01/01 00:58:07;;;;;;;6.05;5.08;;;15.80;92.30;;;;;;924997;152;27417;-75
2022/01/01 01:00:34;;;;;;;6.35;5.05;;;15.90;92.30;;;;;;926779;150;27995;-74
2022/01/01 01:03:01;;;;;;;6.35;4.55;;;15.80;92.50;;;;;;927735;151;27325;-75
2022/01/01 01:05:27;;;;;;;6.58;4.42;;;15.80;92.40;;;;;;921665;153;27697;-74
2022/01/01 01:07:54;;;;;;;4.62;3.92;;;15.80;92.40;;;;;;923747;152;27309;-74
2022/01/01 01:10:20;;;;;;;4.67;4.20;;;15.80;92.50;;;;;;933030;152;27380;-74
2022/01/01 01:12:48;;;;;;;5.15;4.42;;;15.80;92.50;;;;;;923935;152;27521;-73
2022/01/01 01:15:19;;;;;;;4.58;4.10;;;15.80;92.60;;;;;;926169;152;27425;-75
2022/01/01 01:17:46;;;;;;;4.53;4.10;;;15.80;92.60;;;;;;923833;152;27404;-75
2022/01/01 01:20:13;;;;;;;5.37;4.10;;;15.80;92.60;;;;;;924887;152;27341;-75
2022/01/01 01:22:39;;;;;;;5.75;4.12;;;15.80;92.60;;;;;;927136;152;27283;-75
2022/01/01 01:25:06;;;;;;;4.53;3.98;;;15.90;92.50;;;;;;922647;152;27443;-77
2022/01/01 01:27:34;;;;;;;5.37;4.40;;;15.90;92.50;;;;;;926776;152;27442;-77
2022/01/01 01:29:59;;;;;;;5.00;4.37;;;15.90;92.50;;;;;;923756;152;27301;-76
2022/01/01 01:32:26;;;;;;;4.50;3.95;;;15.90;92.50;;;;;;928015;152;27306;-77
2022/01/01 01:34:52;;;;;;;5.83;3.92;;;15.90;92.40;;;;;;929933;152;27443;-76
2022/01/01 01:37:23;;;;;;;5.12;4.25;;;15.90;92.40;;;;;;924540;152;27471;-77
2022/01/01 01:39:48;;;;;;;4.15;3.77;;;15.90;92.40;;;;;;927859;152;27399;-76
2022/01/01 01:42:15;;;;;;;4.60;4.00;;;15.90;92.40;;;;;;926865;152;27443;-76
2022/01/01 01:44:44;;;;;;;4.72;4.03;;;15.80;92.30;;;;;;931379;152;27391;-77
2022/01/01 01:47:15;;;;;;;4.42;4.03;;;15.80;92.40;;;;;;926178;152;27338;-77
2022/01/01 01:49:34;;;;;;;4.15;3.67;;;15.80;92.40;;;;;;919162;152;27849;-76
2022/01/01 01:52:01;;;;;;;5.65;3.80;;;15.80;92.40;;;;;;924097;152;27358;-76
2022/01/01 01:54:28;;;;;;;4.22;3.70;;;15.80;92.40;;;;;;929604;152;27398;-76
2022/01/01 01:56:58;;;;;;;4.75;3.70;;;15.80;92.50;;;;;;927902;152;27387;-76
2022/01/01 01:59:24;;;;;;;3.83;3.45;;;15.80;92.50;;;;;;923825;152;27372;-75
2022/01/01 02:01:50;;;;;;;4.92;3.67;;;15.90;92.60;;;;;;930949;152;27355;-75
2022/01/01 02:04:17;;;;;;;3.50;3.20;;;15.80;92.60;;;;;;925446;151;27361;-76
2022/01/01 02:06:43;;;;;;;3.47;3.17;;;15.80;92.60;;;;;;923188;152;27349;-76
2022/01/01 02:09:11;;;;;;;4.17;3.77;;;15.80;92.60;;;;;;924908;152;27353;-77
2022/01/01 02:11:37;;;;;;;3.92;3.40;;;15.80;92.90;;;;;;924328;152;27376;-78
2022/01/01 02:14:09;;;;;;;4.25;3.70;;;15.80;92.60;;;;;;923709;152;27389;-77
2022/01/01 02:16:38;;;;;;;4.40;3.52;;;15.80;92.60;;;;;;932243;152;27347;-77
2022/01/01 02:18:59;;;;;;;4.75;3.87;;;15.80;92.60;;;;;;924831;152;27290;-76
2022/01/01 02:21:26;;;;;;;3.62;3.33;;;15.80;92.60;;;;;;926085;152;27341;-75
2022/01/01 02:23:57;;;;;;;3.98;3.47;;;15.80;92.70;;;;;;926212;152;27344;-74
2022/01/01 02:26:19;;;;;;;4.08;3.77;;;15.80;92.70;;;;;;927925;150;27307;-73
2022/01/01 02:28:45;;;;;;;4.15;3.72;;;15.80;92.70;;;;;;923954;155;27353;-74
2022/01/01 02:31:12;;;;;;;4.45;3.90;;;15.80;92.70;;;;;;929986;152;27377;-74
2022/01/01 02:33:38;;;;;;;4.42;4.03;;;15.80;92.70;;;;;;929279;152;27338;-75
2022/01/01 02:36:05;;;;;;;6.15;3.85;;;15.80;92.70;;;;;;926655;152;27325;-74
2022/01/01 02:38:35;;;;;;;3.72;3.42;;;15.80;92.70;;;;;;922916;152;27349;-74
2022/01/01 02:41:01;;;;;;;3.80;3.42;;;15.80;92.70;;;;;;929367;152;27274;-74
2022/01/01 02:43:28;;;;;;;4.47;4.08;;;15.80;92.70;;;;;;931435;152;27399;-75
2022/01/01 02:45:54;;;;;;;4.17;3.58;;;15.80;92.70;;;;;;931949;152;27672;-74
2022/01/01 02:48:21;;;;;;;5.40;4.08;;;15.70;92.70;;;;;;924923;152;27377;-74
2022/01/01 02:50:48;;;;;;;4.15;3.75;;;15.70;92.70;;;;;;924324;152;27360;-74
2022/01/01 02:53:14;;;;;;;5.25;4.30;;;15.70;93.10;;;;;;924350;152;27321;-74
2022/01/01 02:55:41;;;;;;;3.90;3.50;;;15.70;92.90;;;;;;926370;152;27357;-74
2022/01/01 02:58:07;;;;;;;4.00;3.52;;;15.70;92.80;;;;;;924653;152;27445;-74
2022/01/01 03:00:34;;;;;;;4.12;3.72;;;15.70;92.80;;;;;;924375;152;27396;-74
2022/01/01 03:03:00;;;;;;;3.40;3.10;;;15.70;92.80;;;;;;928814;151;27412;-75
2022/01/01 03:05:27;;;;;;;4.53;3.37;;;15.80;92.80;;;;;;930637;151;27367;-77
2022/01/01 03:07:54;;;;;;;4.95;3.90;;;15.70;92.80;;;;;;935732;151;27457;-77
2022/01/01 03:10:20;;;;;;;5.83;3.80;;;15.70;92.80;;;;;;932287;151;27379;-77
2022/01/01 03:12:47;;;;;;;3.90;3.42;;;15.70;92.90;;;;;;930897;149;27333;-76
2022/01/01 03:15:13;;;;;;;3.72;3.42;;;15.70;92.90;;;;;;931054;151;27394;-76
2022/01/01 03:17:40;;;;;;;4.20;3.83;;;15.70;92.80;;;;;;930597;152;27481;-77
2022/01/01 03:20:07;;;;;;;4.03;3.55;;;15.60;92.80;;;;;;929336;151;27945;-75
2022/01/01 03:22:33;;;;;;;4.22;3.12;;;15.60;92.80;;;;;;931050;151;27852;-75
2022/01/01 03:25:03;;;;;;;4.05;3.65;;;15.60;92.90;;;;;;933011;151;27360;-75
2022/01/01 03:27:29;;;;;;;3.77;3.47;;;15.70;92.90;;;;;;930825;151;27283;-75
2022/01/01 03:29:56;;;;;;;4.30;3.30;;;15.60;92.90;;;;;;927058;151;27371;-75
2022/01/01 03:32:22;;;;;;;7.08;3.95;;;15.60;92.90;;;;;;928099;151;27515;-75
2022/01/01 03:34:51;;;;;;;3.67;3.37;;;15.60;92.90;;;;;;935957;151;27341;-74
2022/01/01 03:37:15;;;;;;;4.60;3.77;;;15.60;93.00;;;;;;929890;154;27381;-75
2022/01/01 03:39:42;;;;;;;4.10;3.45;;;15.60;93.00;;;;;;933095;151;27382;-75
2022/01/01 03:42:09;;;;;;;3.67;3.37;;;15.60;93.10;;;;;;932492;151;27365;-75
2022/01/01 03:44:35;;;;;;;4.30;3.90;;;15.60;93.00;;;;;;930123;151;27356;-75
2022/01/01 03:47:09;;;;;;;3.75;3.45;;;15.60;92.90;;;;;;935804;151;27326;-75
2022/01/01 03:49:28;;;;;;;4.92;3.70;;;15.60;92.80;;;;;;934386;150;27353;-75
2022/01/01 03:51:58;;;;;;;4.50;3.92;;;15.60;92.80;;;;;;927367;154;27520;-75
2022/01/01 03:54:25;;;;;;;3.87;3.22;;;15.50;93.10;;;;;;929573;151;27287;-76
2022/01/01 03:56:54;;;;;;;4.45;4.05;;;15.50;92.80;;;;;;930461;151;27337;-76
2022/01/01 03:59:20;;;;;;;4.47;3.90;;;15.50;92.80;;;;;;941247;151;27305;-75
2022/01/01 04:01:47;;;;;;;4.20;3.90;;;15.50;92.80;;;;;;931598;151;27361;-75
2022/01/01 04:04:14;;;;;;;3.58;3.10;;;15.40;92.80;;;;;;930624;151;27485;-75
2022/01/01 04:06:40;;;;;;;4.05;3.65;;;15.40;92.90;;;;;;930115;151;27373;-74
2022/01/01 04:09:07;;;;;;;3.50;3.10;;;15.40;93.00;;;;;;929978;153;27818;-75
2022/01/01 04:11:33;;;;;;;3.98;3.58;;;15.40;93.10;;;;;;943634;151;27296;-74
2022/01/01 04:14:05;;;;;;;3.50;3.20;;;15.40;93.20;;;;;;930308;151;27325;-73
2022/01/01 04:16:32;;;;;;;4.00;3.58;;;15.40;93.30;;;;;;930283;151;27440;-75
2022/01/01 04:18:59;;;;;;;5.12;4.05;;;15.40;93.20;;;;;;937856;151;27297;-74
2022/01/01 04:21:28;;;;;;;4.83;3.65;;;15.40;93.30;;;;;;932381;151;27447;-74
2022/01/01 04:23:54;;;;;;;4.50;3.35;;;15.40;93.30;;;;;;936525;149;27311;-75
2022/01/01 04:26:21;;;;;;;3.90;3.37;;;15.40;93.30;;;;;;931385;151;27218;-75
2022/01/01 04:28:47;;;;;;;4.12;3.72;;;15.40;93.40;;;;;;932389;151;27313;-75
2022/01/01 04:31:15;;;;;;;4.85;3.60;;;15.40;93.40;;;;;;930741;151;27392;-74
2022/01/01 04:33:40;;;;;;;5.55;3.60;;;15.40;93.40;;;;;;930921;151;27374;-73
2022/01/01 04:36:10;;;;;;;5.00;3.42;;;15.40;93.30;;;;;;930281;154;27406;-76
2022/01/01 04:38:37;;;;;;;3.85;3.55;;;15.40;93.40;;;;;;929492;154;27475;-76
2022/01/01 04:41:06;;;;;;;3.85;3.52;;;15.40;93.50;;;;;;931912;151;27396;-76
2022/01/01 04:43:32;;;;;;;4.92;3.75;;;15.40;93.50;;;;;;930610;151;27469;-76
2022/01/01 04:45:59;;;;;;;4.45;3.85;;;15.50;93.70;;;;;;929837;151;27274;-78
2022/01/01 04:48:26;;;;;;;4.10;3.33;;;15.50;93.80;;;;;;943136;149;27293;-77
2022/01/01 04:50:52;;;;;;;5.47;3.80;;;15.50;93.80;;;;;;934687;152;27453;-78
2022/01/01 04:53:19;;;;;;;5.33;4.20;;;15.60;93.70;;;;;;934200;151;27350;-77
2022/01/01 04:55:45;;;;;;;4.28;3.90;;;15.60;93.40;;;;;;934328;151;27387;-77
2022/01/01 04:58:12;;;;;;;4.50;4.10;;;15.60;93.20;;;;;;933368;151;27364;-76
2022/01/01 05:00:39;;;;;;;4.40;4.00;;;15.60;93.10;;;;;;933828;153;27342;-76
2022/01/01 05:03:05;;;;;;;4.95;4.25;;;15.60;93.00;;;;;;935698;150;27415;-77
2022/01/01 05:05:32;;;;;;;5.35;4.30;;;15.60;92.90;;;;;;945543;148;27469;-78
2022/01/01 05:07:58;;;;;;;5.53;4.40;;;15.60;92.80;;;;;;940806;148;27289;-79
2022/01/01 05:10:25;;;;;;;4.77;4.27;;;15.60;92.70;;;;;;951471;149;27478;-80
2022/01/01 05:12:51;;;;;;;5.67;4.12;;;15.60;92.70;;;;;;939079;148;27390;-79
2022/01/01 05:15:21;;;;;;;5.40;4.50;;;15.50;92.70;;;;;;934038;151;27352;-79
2022/01/01 05:17:48;;;;;;;5.80;4.40;;;15.50;92.70;;;;;;945484;150;27320;-80
2022/01/01 05:20:14;;;;;;;5.40;3.98;;;15.50;92.70;;;;;;945029;151;27405;-79
2022/01/01 05:22:41;;;;;;;4.78;4.37;;;15.50;92.70;;;;;;946532;150;27358;-79
2022/01/01 05:25:07;;;;;;;5.05;4.35;;;15.40;92.70;;;;;;945570;151;27344;-78
2022/01/01 05:27:36;;;;;;;4.47;4.00;;;15.40;92.80;;;;;;931855;148;27407;-79
2022/01/01 05:30:01;;;;;;;4.77;4.37;;;15.40;92.90;;;;;;953096;148;27321;-78
2022/01/01 05:32:30;;;;;;;5.05;4.55;;;15.40;92.90;;;;;;949206;148;27284;-79
2022/01/01 05:34:57;;;;;;;4.33;3.92;;;15.30;92.90;;;;;;936371;148;27419;-79
2022/01/01 05:37:23;;;;;;;5.75;4.70;;;15.30;92.90;;;;;;933889;152;27342;-79
2022/01/01 05:39:50;;;;;;;4.80;4.30;;;15.30;93.00;;;;;;933087;153;27327;-78
2022/01/01 05:42:16;;;;;;;5.12;4.62;;;15.30;93.00;;;;;;931553;150;27413;-78
2022/01/01 05:44:43;;;;;;;4.47;4.08;;;15.30;93.00;;;;;;934096;150;27338;-78
2022/01/01 05:47:10;;;;;;;4.80;4.25;;;15.30;93.00;;;;;;931395;151;27330;-76
2022/01/01 05:49:36;;;;;;;6.15;5.20;;;15.30;93.10;;;;;;927502;150;27472;-78
2022/01/01 05:52:03;;;;;;;6.00;4.80;;;15.20;93.10;;;;;;937732;150;27381;-78
2022/01/01 05:54:29;;;;;;;5.67;5.10;;;15.20;93.10;;;;;;948335;148;27237;-77
2022/01/01 05:56:56;;;;;;;4.75;4.30;;;15.20;93.20;;;;;;928176;150;27438;-77
2022/01/01 05:59:22;;;;;;;6.75;4.85;;;15.20;93.20;;;;;;934104;150;27415;-77
2022/01/01 06:01:49;;;;;;;5.37;4.62;;;15.20;93.30;;;;;;926928;150;27472;-78
2022/01/01 06:04:16;;;;;;;5.15;4.67;;;15.20;93.40;;;;;;922236;151;27469;-78
2022/01/01 06:06:42;;;;;;;5.83;5.25;;;15.20;93.40;;;;;;934599;150;27345;-78
2022/01/01 06:09:09;;;;;;;5.03;4.53;;;15.10;93.40;;;;;;933254;152;27372;-77
2022/01/01 06:11:35;;;;;;;5.90;4.62;;;15.10;93.40;;;;;;943946;150;27325;-79
2022/01/01 06:14:02;;;;;;;5.80;5.20;;;15.10;93.40;;;;;;943081;150;27343;-77
2022/01/01 06:16:29;;;;;;;5.42;4.90;;;15.10;93.40;;;;;;937017;150;27440;-79
2022/01/01 06:18:55;;;;;;;5.43;4.70;;;15.10;93.50;;;;;;919201;155;27428;-78
2022/01/01 06:21:22;;;;;;;5.50;4.70;;;15.10;93.40;;;;;;937623;150;27340;-79
2022/01/01 06:23:48;;;;;;;5.55;4.85;;;15.10;93.50;;;;;;946586;149;27766;-80
2022/01/01 06:26:15;;;;;;;5.42;4.92;;;15.10;93.50;;;;;;942106;150;28027;-77
2022/01/01 06:28:42;;;;;;;7.70;6.25;;;15.10;93.60;;;;;;920825;153;27486;-78
2022/01/01 06:31:08;;;;;;;8.10;5.87;;;15.00;93.60;;;;;;936678;150;27327;-80
2022/01/01 06:33:35;;;;;;;6.87;5.85;;;15.00;93.70;;;;;;938668;150;27315;-79
2022/01/01 06:36:01;;;;;;;6.03;5.43;;;15.00;93.70;;;;;;922341;154;27733;-79
2022/01/01 06:38:28;;;;;;;7.22;5.28;;;15.00;93.70;;;;;;935443;151;27338;-79
2022/01/01 06:40:57;;;;;;;7.13;6.03;;;15.00;93.80;;;;;;927196;152;27352;-79
2022/01/01 06:43:24;;;;;;;6.65;5.53;;;15.00;93.80;;;;;;938547;148;27907;-79
2022/01/01 06:45:50;;;;;;;6.47;5.28;;;15.00;93.80;;;;;;944656;150;27356;-78
2022/01/01 06:48:19;;;;;;;6.30;4.67;;;15.00;93.80;;;;;;937273;151;27413;-79
2022/01/01 06:50:46;;;;;;;5.30;4.80;;;15.00;93.80;;;;;;935637;150;27401;-79
2022/01/01 06:53:13;;;;;;;4.62;4.22;;;15.00;93.90;;;;;;941791;149;27322;-79
2022/01/01 06:55:39;;;;;;;5.03;4.33;;;15.00;93.90;;;;;;938080;150;27420;-79
2022/01/01 06:58:06;;;;;;;7.72;4.50;;;15.00;93.90;;;;;;936390;151;27398;-77
2022/01/01 07:00:32;;;;;;;6.28;4.65;;;15.00;93.90;;;;;;939805;150;27482;-78
2022/01/01 07:02:59;;;;;;;5.42;4.65;;;15.00;93.90;;;;;;919654;153;27309;-77
2022/01/01 07:05:26;;;;;;;5.40;4.90;;;15.00;93.90;;;;;;937128;150;27289;-77
2022/01/01 07:07:52;;;;;;;5.30;4.57;;;15.00;93.90;;;;;;935099;149;27321;-77
2022/01/01 07:10:19;;;;;;;5.40;4.90;;;14.90;93.80;;;;;;929262;152;27448;-77
2022/01/01 07:12:45;;;;;;;5.30;4.77;;;14.90;93.80;;;;;;930472;151;27370;-78
2022/01/01 07:15:12;;;;;;;5.47;4.97;;;14.90;93.80;;;;;;928010;151;27537;-76
2022/01/01 07:17:41;;;;;;;5.57;4.90;;;14.90;93.90;;;;;;925977;152;27520;-78
2022/01/01 07:20:08;;;;;;;5.00;4.35;;;14.80;93.90;;;;;;927075;152;27430;-78
2022/01/01 07:22:43;;;;;;;6.03;4.63;;;14.80;94.00;;;;;;925839;152;27321;-78
2022/01/01 07:25:10;;;;;;;4.93;4.43;;;14.80;94.10;;;;;;939669;150;27349;-78
2022/01/01 07:27:36;;;;;;;4.90;4.33;;;14.80;94.10;;;;;;938491;149;27287;-77
2022/01/01 07:30:03;;;;;;;6.00;4.62;;;14.80;94.10;;;;;;941621;149;27271;-79
2022/01/01 07:32:29;;;;;;;5.40;4.65;;;14.80;94.20;;;;;;936103;150;27323;-78
2022/01/01 07:34:56;;;;;;;6.17;4.73;;;14.80;94.30;;;;;;938389;150;27291;-77
2022/01/01 07:37:26;;;;;;;4.47;4.08;;;14.80;94.30;;;;;;941493;149;27329;-78
2022/01/01 07:39:52;;;;;;;4.87;4.35;;;14.80;94.30;;;;;;935268;152;27300;-78
2022/01/01 07:42:19;;;;;;;4.92;4.33;;;14.80;94.40;;;;;;926349;152;27444;-78
2022/01/01 07:44:45;;;;;;;4.90;4.50;;;14.80;94.40;;;;;;924876;152;27370;-78
2022/01/01 07:47:12;;;;;;;4.87;4.37;;;14.80;94.40;;;;;;927743;152;27340;-77
2022/01/01 07:49:38;;;;;;;5.97;4.90;;;14.80;94.50;;;;;;923382;152;27353;-77
2022/01/01 07:52:05;;;;;;;5.13;4.60;;;14.80;94.50;;;;;;924227;152;27296;-76
2022/01/01 07:54:32;;;;;;;4.75;4.35;;;14.90;94.60;;;;;;924141;152;27386;-76
2022/01/01 07:56:58;;;;;;;4.60;4.20;;;14.80;94.50;;;;;;924931;152;27414;-77
2022/01/01 07:59:25;;;;;;;4.53;4.13;;;14.90;94.50;;;;;;922739;153;27353;-77
2022/01/01 08:01:51;;;;;;;8.18;4.87;;;14.90;94.60;;;;;;935955;152;27297;-77
2022/01/01 08:04:18;;;;;;;5.58;4.95;;;14.90;94.70;;;;;;927287;151;27298;-78
2022/01/01 08:06:45;;;;;;;5.58;4.83;;;14.90;94.70;;;;;;924394;154;27393;-73
2022/01/01 08:09:13;;;;;;;5.50;5.00;;;14.90;94.70;;;;;;928633;152;27442;-82
2022/01/01 08:11:38;;;;;;;5.65;5.15;;;14.90;94.70;;;;;;928255;152;27378;-80
2022/01/01 08:14:04;;;;;;;6.50;5.70;;;14.90;94.70;;;;;;928181;152;27445;-79
2022/01/01 08:16:31;;;;;;;5.72;5.15;;;14.90;94.70;;;;;;930647;152;27297;-80
2022/01/01 08:18:58;;;;;;;5.87;5.27;;;15.00;94.70;;;;;;932372;151;27446;-80
2022/01/01 08:21:24;;;;;;;5.50;5.00;;;15.00;94.70;;;;;;928239;152;27350;-81
2022/01/01 08:23:51;;;;;;;8.43;5.50;;;15.00;94.70;;;;;;946444;148;27243;-79
2022/01/01 08:26:17;;;;;;;6.30;5.25;;;15.00;94.70;;;;;;943928;149;27348;-79
2022/01/01 08:28:44;;;;;;;9.30;5.92;;;15.00;94.80;;;;;;943331;149;27305;-80
2022/01/01 08:31:10;;;;;;;12.58;6.33;;;15.00;94.90;;;;;;936819;148;27314;-80
2022/01/01 08:33:37;;;;;;;11.25;6.83;;;15.10;94.80;;;;;;927622;152;27836;-79
2022/01/01 08:36:04;;;;;;;9.30;5.58;;;15.10;94.70;;;;;;935100;151;27297;-80
2022/01/01 08:38:30;;;;;;;9.10;6.12;;;15.10;94.70;;;;;;930585;151;27439;-80
2022/01/01 08:40:57;;;;;;;10.68;6.25;;;15.10;94.70;;;;;;909407;153;27440;-81
2022/01/01 08:43:26;;;;;;;11.37;6.47;;;15.10;94.70;;;;;;938263;149;27238;-78
2022/01/01 08:45:53;;;;;;;8.98;6.22;;;15.10;94.70;;;;;;914330;153;27398;-75
2022/01/01 08:48:19;;;;;;;10.20;6.33;;;15.20;94.70;;;;;;935027;152;27402;-74
2022/01/01 08:50:46;;;;;;;6.53;5.12;;;15.20;94.80;;;;;;928798;152;27387;-74
2022/01/01 08:53:12;;;;;;;8.98;6.08;;;15.20;94.90;;;;;;929053;152;27466;-73
2022/01/01 08:55:42;;;;;;;10.82;6.58;;;15.20;95.20;;;;;;928990;152;27397;-73
2022/01/01 08:58:08;;;;;;;12.95;6.50;;;15.30;94.90;;;;;;930552;150;27746;-73
2022/01/01 09:00:35;;;;;;;11.25;6.42;;;15.30;94.90;;;;;;929527;151;27371;-73
2022/01/01 09:03:01;;;;;;;9.00;6.12;;;15.30;94.90;;;;;;930018;152;27290;-73
2022/01/01 09:05:28;;;;;;;9.00;5.78;;;15.30;94.80;;;;;;934261;151;27763;-74
2022/01/01 09:07:54;;;;;;;7.22;5.20;;;15.40;94.80;;;;;;935667;153;27830;-74
2022/01/01 09:10:24;;;;;;;5.75;5.10;;;15.40;94.70;;;;;;938964;151;27354;-75
2022/01/01 09:12:51;;;;;;;5.65;4.30;;;15.40;94.70;;;;;;936546;151;27344;-73
2022/01/01 09:15:17;;;;;;;5.17;4.50;;;15.50;94.90;;;;;;933270;152;27416;-72
2022/01/01 09:17:44;;;;;;;12.43;7.10;;;15.50;95.00;;;;;;933357;153;27374;-74
2022/01/01 09:20:10;;;;;;;5.47;4.87;;;15.60;95.10;;;;;;935888;153;27342;-74
2022/01/01 09:22:37;;;;;;;5.58;4.80;;;15.60;95.20;;;;;;935353;153;27354;-75
2022/01/01 09:25:04;;;;;;;5.50;4.25;;;15.70;95.20;;;;;;933793;153;27343;-76
2022/01/01 09:27:30;;;;;;;7.20;4.95;;;15.80;95.20;;;;;;932970;153;27342;-77
2022/01/01 09:29:59;;;;;;;4.87;4.08;;;15.90;95.00;;;;;;933052;152;27316;-73
2022/01/01 09:32:26;;;;;;;6.70;3.72;;;16.00;94.80;;;;;;933284;153;27369;-75
2022/01/01 09:34:52;;;;;;;4.72;4.33;;;16.10;94.70;;;;;;929369;153;27372;-74
2022/01/01 09:37:19;;;;;;;50.83;16.67;;;16.10;94.50;;;;;;933923;153;27354;-74
2022/01/01 09:39:46;;;;;;;19.37;10.50;;;16.20;94.40;;;;;;934004;153;27347;-74
2022/01/01 09:42:12;;;;;;;54.05;26.27;;;16.30;94.10;;;;;;934235;150;27469;-74
2022/01/01 09:44:39;;;;;;;14.60;9.95;;;16.30;93.90;;;;;;935721;153;27385;-74
2022/01/01 09:47:05;;;;;;;10.58;8.23;;;16.40;93.70;;;;;;933885;153;27406;-74
2022/01/01 09:49:35;;;;;;;14.70;7.47;;;16.40;93.50;;;;;;932960;150;27453;-74
2022/01/01 09:52:01;;;;;;;12.33;6.67;;;16.40;93.40;;;;;;935515;153;27521;-73
2022/01/01 09:54:31;;;;;;;16.20;6.12;;;16.50;93.30;;;;;;933804;150;27288;-74
2022/01/01 09:56:57;;;;;;;18.67;7.37;;;16.50;93.20;;;;;;936117;153;27344;-74
2022/01/01 09:59:24;;;;;;;13.10;5.72;;;16.50;93.10;;;;;;936217;150;27401;-74
2022/01/01 10:01:53;;;;;;;13.15;5.65;;;16.60;93.00;;;;;;934609;153;27353;-74
2022/01/01 10:04:20;;;;;;;10.15;4.92;;;16.60;92.90;;;;;;935747;153;27355;-73
2022/01/01 10:07:04;;;;;;;11.88;5.25;;;16.60;92.80;;;;;;934957;151;27389;-73
2022/01/01 10:09:31;;;;;;;13.10;5.75;;;16.70;92.70;;;;;;934857;150;27365;-73
2022/01/01 10:11:57;;;;;;;11.15;5.42;;;16.70;92.70;;;;;;934454;150;27303;-74
2022/01/01 10:14:36;;;;;;;9.90;5.55;;;16.70;92.60;;;;;;936753;151;27330;-74
2022/01/01 10:17:08;;;;;;;14.05;5.83;;;16.70;92.40;;;;;;931842;150;27342;-74
2022/01/01 10:19:35;;;;;;;9.10;5.00;;;16.70;92.20;;;;;;936866;151;27783;-73
2022/01/01 10:22:06;;;;;;;7.22;5.35;;;16.70;92.10;;;;;;941816;151;27329;-73
2022/01/01 10:27:42;;;;;;;14.58;6.53;;;16.70;92.00;;;;;;936241;151;27309;-73
2022/01/01 10:32:21;;;;;;;9.58;5.50;;;16.80;92.10;;;;;;977089;145;37208;-72
2022/01/01 10:34:48;;;;;;;9.93;7.30;;;16.80;91.90;;;;;;965095;146;27306;-75
2022/01/01 10:37:15;;;;;;;11.30;7.42;;;16.80;91.80;;;;;;964688;148;27286;-75
2022/01/01 10:39:47;;;;;;;12.47;6.40;;;16.80;91.80;;;;;;962860;146;27326;-75
2022/01/01 10:42:14;;;;;;;8.03;5.90;;;16.80;91.70;;;;;;962481;146;27306;-75
2022/01/01 10:44:41;;;;;;;10.00;5.95;;;16.80;91.70;;;;;;965421;146;27367;-74
2022/01/01 10:47:07;;;;;;;10.55;6.53;;;16.80;91.60;;;;;;970672;146;27308;-76
2022/01/01 10:49:49;;;;;;;18.35;9.13;;;16.80;91.60;;;;;;961421;146;27739;-74
2022/01/01 10:52:15;;;;;;;26.23;10.38;;;16.90;91.70;;;;;;962761;147;27286;-76
2022/01/01 10:54:57;;;;;;;38.20;14.33;;;16.90;91.70;;;;;;963457;148;27365;-74
2022/01/01 10:57:23;;;;;;;59.60;20.57;;;16.90;91.80;;;;;;963046;146;27349;-75
2022/01/01 10:59:50;;;;;;;15.68;8.93;;;16.90;92.00;;;;;;963332;146;27647;-75
2022/01/01 11:02:23;;;;;;;7.75;6.58;;;17.00;92.00;;;;;;971743;146;27328;-75
2022/01/01 11:04:49;;;;;;;7.08;6.33;;;17.00;92.10;;;;;;964707;146;27411;-74
2022/01/01 11:07:24;;;;;;;6.60;5.65;;;17.10;91.90;;;;;;964044;146;27329;-76
2022/01/01 11:09:53;;;;;;;7.70;6.35;;;17.20;91.90;;;;;;970360;146;27306;-73
2022/01/01 11:12:21;;;;;;;8.90;6.28;;;17.20;91.70;;;;;;965492;146;27348;-74
2022/01/01 11:14:47;;;;;;;7.30;6.60;;;17.30;91.50;;;;;;956742;149;27471;-73
2022/01/01 11:17:13;;;;;;;6.15;5.55;;;17.40;91.30;;;;;;951723;148;27401;-73
2022/01/01 11:19:40;;;;;;;10.28;6.10;;;17.40;91.10;;;;;;948748;149;27425;-74
2022/01/01 11:22:06;;;;;;;6.15;5.65;;;17.40;91.10;;;;;;953568;149;27400;-76
2022/01/01 11:24:33;;;;;;;5.60;5.05;;;17.50;91.00;;;;;;948038;149;27935;-76
2022/01/01 11:27:03;;;;;;;4.83;4.42;;;17.50;90.80;;;;;;959859;149;27306;-76
2022/01/01 11:29:29;;;;;;;5.42;4.80;;;17.50;90.60;;;;;;952035;149;27356;-76
2022/01/01 11:31:56;;;;;;;5.58;5.05;;;17.50;90.40;;;;;;948477;147;27441;-76
2022/01/01 11:34:22;;;;;;;5.40;4.92;;;17.60;90.30;;;;;;944171;150;27374;-76
2022/01/01 11:36:49;;;;;;;5.35;4.83;;;17.60;90.20;;;;;;940534;152;27317;-76
2022/01/01 11:39:16;;;;;;;6.22;4.75;;;17.60;90.20;;;;;;943962;149;27382;-76
2022/01/01 11:41:42;;;;;;;5.33;4.83;;;17.60;89.90;;;;;;946892;147;27340;-76
2022/01/01 11:44:27;;;;;;;5.50;5.00;;;17.60;89.60;;;;;;940661;150;27351;-76
2022/01/01 11:47:03;;;;;;;4.78;4.37;;;17.60;89.40;;;;;;942338;150;27861;-76
2022/01/01 11:49:28;;;;;;;5.85;4.53;;;17.60;89.40;;;;;;941976;149;28129;-76
2022/01/01 11:51:55;;;;;;;4.90;4.50;;;17.60;89.40;;;;;;945422;150;27445;-76
2022/01/01 11:54:27;;;;;;;5.92;5.33;;;17.60;89.50;;;;;;941813;150;27306;-76
2022/01/01 11:56:56;;;;;;;5.78;5.20;;;17.70;89.40;;;;;;941513;150;27428;-76
2022/01/01 11:59:26;;;;;;;5.62;5.08;;;17.70;89.30;;;;;;942289;151;27402;-76
2022/01/01 12:01:52;;;;;;;5.15;4.65;;;17.70;90.00;;;;;;940985;152;27292;-76
2022/01/01 12:04:33;;;;;;;4.92;4.53;;;17.70;88.90;;;;;;944467;150;27309;-76
2022/01/01 12:07:00;;;;;;;5.20;4.70;;;17.70;88.70;;;;;;940395;152;27347;-76
2022/01/01 12:09:27;;;;;;;5.40;4.90;;;17.80;88.60;;;;;;944182;149;27408;-76
2022/01/01 12:11:54;;;;;;;6.95;5.55;;;17.80;88.50;;;;;;945960;149;27319;-76
2022/01/01 12:14:23;;;;;;;6.80;5.30;;;17.80;88.40;;;;;;942441;148;27468;-76
2022/01/01 12:16:50;;;;;;;5.28;4.78;;;17.80;88.20;;;;;;947055;148;27398;-76
2022/01/01 12:19:16;;;;;;;4.97;4.58;;;17.80;88.10;;;;;;938823;150;27296;-76
2022/01/01 12:21:43;;;;;;;5.33;4.83;;;17.80;88.10;;;;;;942857;150;27417;-76
2022/01/01 12:24:09;;;;;;;5.53;4.97;;;17.80;88.20;;;;;;945773;150;27305;-76
2022/01/01 12:26:35;;;;;;;5.00;4.42;;;17.80;88.10;;;;;;940310;150;27423;-76
2022/01/01 12:29:05;;;;;;;5.50;4.65;;;17.80;87.90;;;;;;940101;152;27376;-76
2022/01/01 12:31:31;;;;;;;4.95;4.55;;;17.80;87.80;;;;;;942449;150;27440;-76
2022/01/01 12:34:10;;;;;;;6.30;5.10;;;17.80;87.70;;;;;;945681;150;27349;-76
2022/01/01 12:36:41;;;;;;;5.47;4.90;;;17.80;87.70;;;;;;942082;150;27342;-76
2022/01/01 12:39:04;;;;;;;5.37;4.87;;;17.80;87.60;;;;;;944667;150;27264;-76
2022/01/01 12:41:38;;;;;;;4.78;4.28;;;17.80;87.60;;;;;;946357;149;27377;-76
2022/01/01 12:44:08;;;;;;;5.67;5.03;;;17.90;87.70;;;;;;939795;150;27335;-75
2022/01/01 12:46:38;;;;;;;5.28;4.78;;;17.90;87.60;;;;;;944055;150;27459;-75
2022/01/01 12:49:04;;;;;;;4.53;4.12;;;17.90;87.50;;;;;;941057;150;27475;-75
2022/01/01 12:51:33;;;;;;;4.78;4.37;;;17.90;87.30;;;;;;943700;150;27281;-75